createdAt,value
2022-11-27T00:00:21.172Z,0.01
2022-11-27T00:01:42.982Z,0.03
2022-11-27T00:02:44.849Z,0.05
2022-11-27T00:03:47.634Z,0.06
2022-11-27T00:04:49.420Z,0.07
2022-11-27T00:05:55.845Z,0.09
2022-11-27T00:06:57.684Z,0.10
2022-11-27T00:07:59.503Z,0.11
2022-11-27T00:09:11.551Z,0.12
2022-11-27T00:10:13.277Z,0.13
2022-11-27T00:11:23.725Z,0.14
2022-11-27T00:12:25.474Z,0.15
2022-11-27T00:13:27.582Z,0.16
2022-11-27T00:14:29.712Z,0.17
2022-11-27T00:15:31.518Z,0.18
2022-11-27T00:16:33.797Z,0.18
2022-11-27T00:17:35.616Z,0.18
2022-11-27T00:18:37.664Z,0.18
2022-11-27T00:19:39.621Z,0.17
2022-11-27T00:20:41.493Z,0.17
2022-11-27T00:21:43.227Z,0.17
2022-11-27T00:22:44.949Z,0.16
2022-11-27T00:23:46.698Z,0.15
2022-11-27T00:24:48.408Z,0.14
2022-11-27T00:25:53.812Z,0.14
2022-11-27T00:26:55.512Z,0.14
2022-11-27T00:27:57.359Z,0.14
2022-11-27T00:28:59.285Z,0.14
2022-11-27T00:30:01.090Z,0.14
2022-11-27T00:31:06.833Z,0.16
2022-11-27T00:32:08.642Z,0.18
2022-11-27T00:33:10.396Z,0.21
2022-11-27T00:34:12.182Z,0.21
2022-11-27T00:35:14.072Z,0.22
2022-11-27T00:36:16.646Z,0.21
2022-11-27T00:37:18.384Z,0.22
2022-11-27T00:38:20.622Z,0.22
2022-11-27T00:39:22.345Z,0.22
2022-11-27T00:40:24.091Z,0.21
2022-11-27T00:41:29.018Z,0.21
2022-11-27T00:42:30.869Z,0.19
2022-11-27T00:43:43.190Z,0.21
2022-11-27T00:44:46.219Z,0.21
2022-11-27T00:45:51.038Z,0.20
2022-11-27T00:46:52.863Z,0.18
2022-11-27T00:47:54.826Z,0.19
2022-11-27T00:48:57.712Z,0.18
2022-11-27T00:49:59.518Z,0.18
2022-11-27T00:51:08.678Z,0.18
2022-11-27T00:52:10.417Z,0.19
2022-11-27T00:53:12.182Z,0.20
2022-11-27T00:54:13.969Z,0.21
2022-11-27T00:55:15.739Z,0.23
2022-11-27T00:56:21.709Z,0.25
2022-11-27T00:57:23.445Z,0.27
2022-11-27T00:58:26.408Z,0.28
2022-11-27T00:59:28.131Z,0.29
2022-11-27T01:00:29.974Z,0.31
2022-11-27T01:01:36.690Z,0.29
2022-11-27T01:02:38.568Z,0.29
2022-11-27T01:03:40.409Z,0.27
2022-11-27T01:04:46.170Z,0.25
2022-11-27T01:05:47.926Z,0.24
2022-11-27T01:06:49.978Z,0.23
2022-11-27T01:07:51.814Z,0.23
2022-11-27T01:08:54.418Z,0.24
2022-11-27T01:09:56.183Z,0.27
2022-11-27T01:10:58.965Z,0.28
2022-11-27T01:12:00.851Z,0.31
2022-11-27T01:13:02.597Z,0.31
2022-11-27T01:14:13.044Z,0.30
2022-11-27T01:15:14.792Z,0.31
2022-11-27T01:16:20.336Z,0.32
2022-11-27T01:17:22.206Z,0.34
2022-11-27T01:18:23.952Z,0.34
2022-11-27T01:19:26.760Z,0.33
2022-11-27T01:20:28.543Z,0.32
2022-11-27T01:21:34.330Z,0.32
2022-11-27T01:22:36.531Z,0.31
2022-11-27T01:23:38.364Z,0.31
2022-11-27T01:24:40.263Z,0.32
2022-11-27T01:25:42.195Z,0.35
2022-11-27T01:26:45.011Z,0.36
2022-11-27T01:27:46.900Z,0.40
2022-11-27T01:28:52.291Z,0.40
2022-11-27T01:29:54.032Z,0.40
2022-11-27T01:30:56.313Z,0.39
2022-11-27T01:31:58.258Z,0.38
2022-11-27T01:33:00.088Z,0.37
2022-11-27T01:34:06.176Z,0.36
2022-11-27T01:35:08.618Z,0.34
2022-11-27T01:36:13.316Z,0.33
2022-11-27T01:37:15.203Z,0.33
2022-11-27T01:38:17.006Z,0.33
2022-11-27T01:39:21.006Z,0.33
2022-11-27T01:40:23.340Z,0.33
2022-11-27T01:41:27.702Z,0.31
2022-11-27T01:42:29.443Z,0.32
2022-11-27T01:43:46.090Z,0.32
2022-11-27T01:44:51.720Z,0.32
2022-11-27T01:45:53.665Z,0.32
2022-11-27T01:47:07.012Z,0.31
2022-11-27T01:48:13.380Z,0.31
2022-11-27T01:49:38.706Z,0.32
2022-11-27T01:50:40.848Z,0.33
2022-11-27T01:52:01.147Z,0.31
2022-11-27T01:53:13.004Z,0.29
2022-11-27T01:54:17.104Z,0.27
2022-11-27T01:55:25.844Z,0.27
2022-11-27T01:56:30.122Z,0.28
2022-11-27T01:57:45.683Z,0.29
2022-11-27T01:58:49.239Z,0.27
2022-11-27T01:59:54.853Z,0.27
2022-11-27T02:00:56.763Z,0.29
2022-11-27T02:01:58.680Z,0.29
2022-11-27T02:03:00.687Z,0.30
2022-11-27T02:04:02.748Z,0.31
2022-11-27T02:05:05.141Z,0.32
2022-11-27T02:06:07.185Z,0.33
2022-11-27T02:07:09.320Z,0.34
2022-11-27T02:08:14.987Z,0.34
2022-11-27T02:09:16.901Z,0.33
2022-11-27T02:10:19.279Z,0.32
2022-11-27T02:11:33.891Z,0.31
2022-11-27T02:13:01.874Z,0.31
2022-11-27T02:14:18.876Z,0.32
2022-11-27T02:15:34.149Z,0.33
2022-11-27T02:17:00.601Z,0.32
2022-11-27T02:18:12.988Z,0.31
2022-11-27T02:19:52.019Z,0.31
2022-11-27T02:21:10.845Z,0.33
2022-11-27T02:22:49.321Z,0.34
2022-11-27T02:23:59.599Z,0.36
2022-11-27T02:25:13.655Z,0.38
2022-11-27T02:26:49.180Z,0.39
2022-11-27T02:28:03.680Z,0.41
2022-11-27T02:29:12.248Z,0.42
2022-11-27T02:30:14.722Z,0.42
2022-11-27T02:31:25.766Z,0.42
2022-11-27T02:32:39.825Z,0.42
2022-11-27T02:33:50.120Z,0.41
2022-11-27T02:35:02.762Z,0.41
2022-11-27T02:36:14.716Z,0.42
2022-11-27T02:37:28.384Z,0.44
2022-11-27T02:38:38.507Z,0.44
2022-11-27T02:40:06.708Z,0.44
2022-11-27T02:41:18.989Z,0.45
2022-11-27T02:42:22.107Z,0.46
2022-11-27T02:43:33.166Z,0.44
2022-11-27T02:44:44.537Z,0.44
2022-11-27T02:45:52.137Z,0.42
2022-11-27T02:46:55.796Z,0.41
2022-11-27T02:47:59.590Z,0.41
2022-11-27T02:49:11.061Z,0.42
2022-11-27T02:50:20.043Z,0.42
2022-11-27T02:51:35.506Z,0.44
2022-11-27T02:52:38.119Z,0.46
2022-11-27T02:53:50.265Z,0.47
2022-11-27T02:54:57.743Z,0.49
2022-11-27T02:56:05.329Z,0.49
2022-11-27T02:57:10.760Z,0.50
2022-11-27T02:58:20.003Z,0.50
2022-11-27T02:59:26.563Z,0.49
2022-11-27T03:00:30.763Z,0.48
2022-11-27T03:01:39.801Z,0.46
2022-11-27T03:02:50.442Z,0.45
2022-11-27T03:03:58.224Z,0.44
2022-11-27T03:05:05.589Z,0.45
2022-11-27T03:06:14.850Z,0.46
2022-11-27T03:07:26.852Z,0.48
2022-11-27T03:08:34.516Z,0.49
2022-11-27T03:09:42.459Z,0.50
2022-11-27T03:11:05.945Z,0.50
2022-11-27T03:12:19.941Z,0.50
2022-11-27T03:13:38.409Z,0.49
2022-11-27T03:14:43.796Z,0.49
2022-11-27T03:16:17.373Z,0.48
2022-11-27T03:17:52.010Z,0.47
2022-11-27T03:19:17.411Z,0.45
2022-11-27T03:20:37.324Z,0.42
2022-11-27T03:21:43.904Z,0.41
2022-11-27T03:22:45.842Z,0.41
2022-11-27T03:23:47.669Z,0.42
2022-11-27T03:24:51.498Z,0.42
2022-11-27T03:25:55.297Z,0.43
2022-11-27T03:27:02.702Z,0.44
2022-11-27T03:28:10.031Z,0.46
2022-11-27T03:29:21.859Z,0.47
2022-11-27T03:30:23.694Z,0.49
2022-11-27T03:31:26.994Z,0.50
2022-11-27T03:32:30.499Z,0.50
2022-11-27T03:33:32.796Z,0.48
2022-11-27T03:34:35.723Z,0.48
2022-11-27T03:35:37.530Z,0.48
2022-11-27T03:36:39.399Z,0.49
2022-11-27T03:37:41.553Z,0.49
2022-11-27T03:38:45.762Z,0.50
2022-11-27T03:39:48.793Z,0.52
2022-11-27T03:41:09.855Z,0.53
2022-11-27T03:42:39.003Z,0.53
2022-11-27T03:44:07.424Z,0.56
2022-11-27T03:45:38.760Z,0.55
2022-11-27T03:47:01.461Z,0.53
2022-11-27T03:48:23.961Z,0.52
2022-11-27T03:49:46.528Z,0.52
2022-11-27T03:51:01.419Z,0.51
2022-11-27T03:52:33.566Z,0.51
2022-11-27T03:54:01.024Z,0.54
2022-11-27T03:55:31.977Z,0.55
2022-11-27T03:56:39.990Z,0.54
2022-11-27T03:58:09.534Z,0.55
2022-11-27T03:59:23.072Z,0.54
2022-11-27T04:00:25.272Z,0.54
2022-11-27T04:01:29.364Z,0.55
2022-11-27T04:02:44.425Z,0.55
2022-11-27T04:03:46.310Z,0.54
2022-11-27T04:04:48.543Z,0.53
2022-11-27T04:05:50.487Z,0.53
2022-11-27T04:06:52.928Z,0.54
2022-11-27T04:07:57.066Z,0.54
2022-11-27T04:09:00.156Z,0.53
2022-11-27T04:10:01.907Z,0.51
2022-11-27T04:11:04.029Z,0.49
2022-11-27T04:12:05.964Z,0.48
2022-11-27T04:13:08.273Z,0.47
2022-11-27T04:14:10.025Z,0.48
2022-11-27T04:15:12.638Z,0.48
2022-11-27T04:16:14.554Z,0.49
2022-11-27T04:17:16.309Z,0.49
2022-11-27T04:18:18.495Z,0.49
2022-11-27T04:19:20.322Z,0.50
2022-11-27T04:20:22.060Z,0.51
2022-11-27T04:21:23.811Z,0.51
2022-11-27T04:22:25.585Z,0.49
2022-11-27T04:23:27.399Z,0.47
2022-11-27T04:24:31.018Z,0.47
2022-11-27T04:25:33.007Z,0.47
2022-11-27T04:26:34.742Z,0.48
2022-11-27T04:27:36.517Z,0.48
2022-11-27T04:28:38.388Z,0.49
2022-11-27T04:29:40.425Z,0.49
2022-11-27T04:30:42.150Z,0.51
2022-11-27T04:31:43.920Z,0.53
2022-11-27T04:32:45.726Z,0.56
2022-11-27T04:33:47.459Z,0.58
2022-11-27T04:34:49.356Z,0.59
2022-11-27T04:35:51.373Z,0.59
2022-11-27T04:36:53.103Z,0.57
2022-11-27T04:37:58.050Z,0.55
2022-11-27T04:38:59.789Z,0.54
2022-11-27T04:40:01.860Z,0.54
2022-11-27T04:41:03.769Z,0.55
2022-11-27T04:42:05.752Z,0.58
2022-11-27T04:43:07.825Z,0.59
2022-11-27T04:44:11.451Z,0.59
2022-11-27T04:45:14.469Z,0.61
2022-11-27T04:46:16.215Z,0.63
2022-11-27T04:47:18.283Z,0.65
2022-11-27T04:48:20.022Z,0.66
2022-11-27T04:49:21.735Z,0.66
2022-11-27T04:50:23.692Z,0.66
2022-11-27T04:51:25.460Z,0.66
2022-11-27T04:52:27.535Z,0.65
2022-11-27T04:53:29.277Z,0.66
2022-11-27T04:54:31.157Z,0.68
2022-11-27T04:55:33.195Z,0.68
2022-11-27T04:56:34.928Z,0.68
2022-11-27T04:57:36.741Z,0.67
2022-11-27T04:58:38.551Z,0.68
2022-11-27T04:59:40.922Z,0.70
2022-11-27T05:00:42.745Z,0.71
2022-11-27T05:01:44.593Z,0.71
2022-11-27T05:02:46.376Z,0.71
2022-11-27T05:03:48.968Z,0.70
2022-11-27T05:04:50.682Z,0.71
2022-11-27T05:05:56.944Z,0.71
2022-11-27T05:06:58.737Z,0.73
2022-11-27T05:08:00.548Z,0.74
2022-11-27T05:09:02.539Z,0.75
2022-11-27T05:10:06.340Z,0.76
2022-11-27T05:11:13.809Z,0.76
2022-11-27T05:12:15.611Z,0.75
2022-11-27T05:13:17.415Z,0.75
2022-11-27T05:14:20.515Z,0.77
2022-11-27T05:15:22.254Z,0.78
2022-11-27T05:16:24.127Z,0.79
2022-11-27T05:17:26.117Z,0.78
2022-11-27T05:18:27.958Z,0.78
2022-11-27T05:19:31.883Z,0.76
2022-11-27T05:20:33.642Z,0.80
2022-11-27T05:21:35.479Z,0.81
2022-11-27T05:22:37.243Z,0.83
2022-11-27T05:23:38.948Z,0.85
2022-11-27T05:24:41.018Z,0.88
2022-11-27T05:25:42.977Z,0.89
2022-11-27T05:26:44.962Z,0.91
2022-11-27T05:27:46.692Z,0.92
2022-11-27T05:28:48.445Z,0.93
2022-11-27T05:29:50.214Z,0.93
2022-11-27T05:30:51.995Z,0.95
2022-11-27T05:31:53.915Z,0.96
2022-11-27T05:32:55.810Z,0.97
2022-11-27T05:33:57.955Z,0.96
2022-11-27T05:34:59.706Z,0.95
2022-11-27T05:36:01.567Z,0.97
2022-11-27T05:37:03.483Z,0.98
2022-11-27T05:38:05.282Z,0.98
2022-11-27T05:39:08.954Z,0.98
2022-11-27T05:40:10.923Z,0.99
2022-11-27T05:41:12.711Z,0.99
2022-11-27T05:42:14.595Z,1.00
2022-11-27T05:43:16.456Z,1.01
2022-11-27T05:44:23.779Z,1.01
2022-11-27T05:45:25.556Z,0.99
2022-11-27T05:46:27.729Z,0.97
2022-11-27T05:47:30.003Z,0.97
2022-11-27T05:48:31.829Z,0.98
2022-11-27T05:49:33.683Z,0.98
2022-11-27T05:50:35.504Z,0.98
2022-11-27T05:51:37.345Z,0.97
2022-11-27T05:52:39.127Z,0.97
2022-11-27T05:53:41.540Z,0.97
2022-11-27T05:54:43.273Z,0.98
2022-11-27T05:55:44.975Z,0.98
2022-11-27T05:56:47.217Z,0.99
2022-11-27T05:57:49.364Z,1.01
2022-11-27T05:58:51.689Z,1.01
2022-11-27T05:59:53.504Z,0.99
2022-11-27T06:00:55.247Z,0.98
2022-11-27T06:01:57.020Z,0.96
2022-11-27T06:02:59.091Z,0.95
2022-11-27T06:04:01.064Z,0.93
2022-11-27T06:05:02.859Z,0.92
2022-11-27T06:06:09.474Z,0.92
2022-11-27T06:07:11.297Z,0.93
2022-11-27T06:08:13.129Z,0.94
2022-11-27T06:09:14.857Z,0.94
2022-11-27T06:10:16.601Z,0.97
2022-11-27T06:11:21.471Z,0.99
2022-11-27T06:12:23.312Z,0.99
2022-11-27T06:13:25.032Z,0.99
2022-11-27T06:14:26.754Z,0.99
2022-11-27T06:15:28.514Z,0.99
2022-11-27T06:16:30.381Z,1.00
2022-11-27T06:17:32.114Z,1.00
2022-11-27T06:18:34.592Z,0.99
2022-11-27T06:19:36.368Z,0.97
2022-11-27T06:20:43.420Z,0.94
2022-11-27T06:21:46.623Z,0.94
2022-11-27T06:22:48.489Z,0.93
2022-11-27T06:23:55.548Z,0.92
2022-11-27T06:24:57.351Z,0.93
2022-11-27T06:25:59.124Z,0.94
2022-11-27T06:27:00.882Z,0.96
2022-11-27T06:28:02.824Z,0.97
2022-11-27T06:29:05.039Z,0.97
2022-11-27T06:30:07.589Z,0.95
2022-11-27T06:31:17.476Z,0.94
2022-11-27T06:32:19.692Z,0.94
2022-11-27T06:33:21.438Z,0.95
2022-11-27T06:34:23.170Z,0.95
2022-11-27T06:35:25.098Z,0.95
2022-11-27T06:36:30.700Z,0.96
2022-11-27T06:37:32.555Z,0.95
2022-11-27T06:38:37.100Z,0.95
2022-11-27T06:39:39.019Z,0.92
2022-11-27T06:40:40.776Z,0.90
2022-11-27T06:41:43.404Z,0.88
2022-11-27T06:42:45.111Z,0.87
2022-11-27T06:43:47.494Z,0.86
2022-11-27T06:44:49.261Z,0.84
2022-11-27T06:45:59.195Z,0.85
2022-11-27T06:47:01.201Z,0.84
2022-11-27T06:48:02.948Z,0.84
2022-11-27T06:49:05.236Z,0.84
2022-11-27T06:50:07.637Z,0.85
2022-11-27T06:51:13.376Z,0.83
2022-11-27T06:52:15.332Z,0.81
2022-11-27T06:53:17.429Z,0.80
2022-11-27T06:54:19.324Z,0.80
2022-11-27T06:55:21.100Z,0.79
2022-11-27T06:56:25.758Z,0.78
2022-11-27T06:57:27.666Z,0.77
2022-11-27T06:58:31.187Z,0.75
2022-11-27T06:59:33.199Z,0.75
2022-11-27T07:00:34.974Z,0.74
2022-11-27T07:01:36.742Z,0.72
2022-11-27T07:02:38.841Z,0.73
2022-11-27T07:03:41.544Z,0.73
2022-11-27T07:04:43.323Z,0.74
2022-11-27T07:05:45.063Z,0.76
2022-11-27T07:06:46.822Z,0.77
2022-11-27T07:07:48.715Z,0.76
2022-11-27T07:08:50.749Z,0.74
2022-11-27T07:09:52.512Z,0.72
2022-11-27T07:10:54.345Z,0.70
2022-11-27T07:11:56.122Z,0.69
2022-11-27T07:12:57.999Z,0.70
2022-11-27T07:14:04.611Z,0.69
2022-11-27T07:15:07.524Z,0.69
2022-11-27T07:16:11.874Z,0.69
2022-11-27T07:17:13.671Z,0.72
2022-11-27T07:18:15.647Z,0.74
2022-11-27T07:19:17.424Z,0.75
2022-11-27T07:20:19.283Z,0.78
2022-11-27T07:21:21.767Z,0.80
2022-11-27T07:22:23.537Z,0.83
2022-11-27T07:23:25.393Z,0.84
2022-11-27T07:24:27.157Z,0.84
2022-11-27T07:25:28.982Z,0.85
2022-11-27T07:26:31.030Z,0.83
2022-11-27T07:27:32.843Z,0.82
2022-11-27T07:28:35.038Z,0.82
2022-11-27T07:29:36.896Z,0.82
2022-11-27T07:30:38.748Z,0.83
2022-11-27T07:31:40.527Z,0.87
2022-11-27T07:32:42.325Z,0.89
2022-11-27T07:33:44.408Z,0.90
2022-11-27T07:34:46.125Z,0.91
2022-11-27T07:35:47.857Z,0.91
2022-11-27T07:36:49.571Z,0.92
2022-11-27T07:37:51.309Z,0.92
2022-11-27T07:38:53.195Z,0.92
2022-11-27T07:40:02.503Z,0.91
2022-11-27T07:41:06.459Z,0.90
2022-11-27T07:42:37.575Z,0.91
2022-11-27T07:43:31.495Z,0.91
2022-11-27T07:44:33.283Z,0.92
2022-11-27T07:45:35.096Z,0.95
2022-11-27T07:46:36.965Z,0.97
2022-11-27T07:47:39.472Z,0.99
2022-11-27T07:48:41.769Z,1.02
2022-11-27T07:49:43.601Z,1.04
2022-11-27T07:50:45.489Z,1.09
2022-11-27T07:51:47.241Z,1.12
2022-11-27T07:52:48.975Z,1.15
2022-11-27T07:53:51.971Z,1.20
2022-11-27T07:54:54.009Z,1.25
2022-11-27T07:56:00.068Z,1.30
2022-11-27T07:57:02.370Z,1.31
2022-11-27T07:58:04.124Z,1.34
2022-11-27T07:59:05.844Z,1.35
2022-11-27T08:00:08.490Z,1.36
2022-11-27T08:01:15.205Z,1.38
2022-11-27T08:02:17.095Z,1.37
2022-11-27T08:03:18.902Z,1.40
2022-11-27T08:04:21.005Z,1.38
2022-11-27T08:05:22.913Z,1.36
2022-11-27T08:06:27.537Z,1.35
2022-11-27T08:07:30.697Z,1.37
2022-11-27T08:08:33.084Z,1.37
2022-11-27T08:09:34.834Z,1.39
2022-11-27T08:10:38.863Z,1.41
2022-11-27T08:11:40.604Z,1.44
2022-11-27T08:12:42.656Z,1.47
2022-11-27T08:13:44.474Z,1.50
2022-11-27T08:14:46.231Z,1.51
2022-11-27T08:15:48.241Z,1.52
2022-11-27T08:16:50.090Z,1.51
2022-11-27T08:17:51.889Z,1.51
2022-11-27T08:18:54.597Z,1.50
2022-11-27T08:19:56.368Z,1.51
2022-11-27T08:21:00.379Z,1.52
2022-11-27T08:22:02.137Z,1.54
2022-11-27T08:23:04.635Z,1.56
2022-11-27T08:24:06.731Z,1.59
2022-11-27T08:25:09.099Z,1.60
2022-11-27T08:26:12.594Z,1.61
2022-11-27T08:27:16.284Z,1.60
2022-11-27T08:28:18.013Z,1.59
2022-11-27T08:29:19.891Z,1.57
2022-11-27T08:30:23.706Z,1.58
2022-11-27T08:31:25.771Z,1.56
2022-11-27T08:32:27.585Z,1.56
2022-11-27T08:33:30.796Z,1.56
2022-11-27T08:34:32.858Z,1.57
2022-11-27T08:35:34.678Z,1.58
2022-11-27T08:36:36.653Z,1.59
2022-11-27T08:37:38.419Z,1.60
2022-11-27T08:38:40.271Z,1.60
2022-11-27T08:39:42.041Z,1.59
2022-11-27T08:40:44.372Z,1.57
2022-11-27T08:41:46.087Z,1.56
2022-11-27T08:42:47.836Z,1.53
2022-11-27T08:43:49.867Z,1.52
2022-11-27T08:44:51.791Z,1.51
2022-11-27T08:45:56.045Z,1.51
2022-11-27T08:46:57.803Z,1.52
2022-11-27T08:47:59.617Z,1.53
2022-11-27T08:49:01.565Z,1.55
2022-11-27T08:50:03.684Z,1.55
2022-11-27T08:51:08.297Z,1.57
2022-11-27T08:52:11.231Z,1.60
2022-11-27T08:53:14.035Z,1.61
2022-11-27T08:54:16.176Z,1.62
2022-11-27T08:55:18.173Z,1.63
2022-11-27T08:56:23.546Z,1.64
2022-11-27T08:57:25.953Z,1.64
2022-11-27T08:58:27.684Z,1.64
2022-11-27T08:59:29.447Z,1.63
2022-11-27T09:00:32.201Z,1.63
2022-11-27T09:01:33.972Z,1.61
2022-11-27T09:02:35.951Z,1.59
2022-11-27T09:03:38.293Z,1.58
2022-11-27T09:04:40.371Z,1.59
2022-11-27T09:05:44.723Z,1.58
2022-11-27T09:06:48.985Z,1.58
2022-11-27T09:07:51.386Z,1.58
2022-11-27T09:08:53.208Z,1.59
2022-11-27T09:09:54.969Z,1.60
2022-11-27T09:11:01.632Z,1.60
2022-11-27T09:12:03.821Z,1.59
2022-11-27T09:13:05.570Z,1.58
2022-11-27T09:14:08.713Z,1.59
2022-11-27T09:15:13.781Z,1.62
2022-11-27T09:16:19.173Z,1.65
2022-11-27T09:17:20.956Z,1.67
2022-11-27T09:18:23.464Z,1.68
2022-11-27T09:19:26.034Z,1.68
2022-11-27T09:20:27.834Z,1.68
2022-11-27T09:21:30.677Z,1.69
2022-11-27T09:22:34.449Z,1.72
2022-11-27T09:23:37.704Z,1.73
2022-11-27T09:24:39.852Z,1.73
2022-11-27T09:25:41.977Z,1.76
2022-11-27T09:26:44.849Z,1.77
2022-11-27T09:27:46.615Z,1.79
2022-11-27T09:28:48.503Z,1.81
2022-11-27T09:29:50.256Z,1.83
2022-11-27T09:30:56.846Z,1.83
2022-11-27T09:31:58.681Z,1.82
2022-11-27T09:33:02.123Z,1.82
2022-11-27T09:34:04.862Z,1.81
2022-11-27T09:35:06.944Z,1.83
2022-11-27T09:36:11.694Z,1.87
2022-11-27T09:37:13.458Z,1.90
2022-11-27T09:38:15.223Z,1.91
2022-11-27T09:39:19.410Z,1.92
2022-11-27T09:40:21.383Z,1.91
2022-11-27T09:41:50.291Z,1.89
2022-11-27T09:43:04.293Z,1.92
2022-11-27T09:44:22.358Z,1.92
2022-11-27T09:45:27.114Z,1.92
2022-11-27T09:46:38.995Z,1.92
2022-11-27T09:47:48.089Z,1.92
2022-11-27T09:48:52.635Z,1.97
2022-11-27T09:50:03.335Z,2.00
2022-11-27T09:51:15.648Z,2.02
2022-11-27T09:52:42.692Z,2.03
2022-11-27T09:53:56.257Z,2.03
2022-11-27T09:55:13.292Z,2.03
2022-11-27T09:56:18.867Z,2.01
2022-11-27T09:57:29.392Z,2.01
2022-11-27T09:58:39.233Z,2.02
2022-11-27T09:59:50.651Z,2.03
2022-11-27T10:00:52.470Z,2.05
2022-11-27T10:01:54.374Z,2.06
2022-11-27T10:02:56.971Z,2.07
2022-11-27T10:04:02.164Z,2.09
2022-11-27T10:05:34.015Z,2.11
2022-11-27T10:07:09.829Z,2.12
2022-11-27T10:08:47.641Z,2.11
2022-11-27T10:10:01.258Z,2.12
2022-11-27T10:11:44.494Z,2.11
2022-11-27T10:13:05.845Z,2.13
2022-11-27T10:14:32.594Z,2.15
2022-11-27T10:15:52.937Z,2.13
2022-11-27T10:17:08.791Z,2.12
2022-11-27T10:18:16.213Z,2.14
2022-11-27T10:19:36.463Z,2.14
2022-11-27T10:20:46.797Z,2.15
2022-11-27T10:21:59.983Z,2.17
2022-11-27T10:23:23.108Z,2.17
2022-11-27T10:24:36.699Z,2.19
2022-11-27T10:25:49.444Z,2.21
2022-11-27T10:26:58.333Z,2.22
2022-11-27T10:28:06.220Z,2.23
2022-11-27T10:29:31.993Z,2.25
2022-11-27T10:30:52.765Z,2.24
2022-11-27T10:32:04.314Z,2.25
2022-11-27T10:33:20.230Z,2.23
2022-11-27T10:34:40.625Z,2.26
2022-11-27T10:35:47.916Z,2.31
2022-11-27T10:36:54.291Z,2.33
2022-11-27T10:38:22.407Z,2.35
2022-11-27T10:39:59.283Z,2.38
2022-11-27T10:41:07.789Z,2.39
2022-11-27T10:42:26.213Z,2.40
2022-11-27T10:43:27.965Z,2.42
2022-11-27T10:44:50.855Z,2.43
2022-11-27T10:46:18.781Z,2.44
2022-11-27T10:47:28.535Z,2.41
2022-11-27T10:48:33.353Z,2.40
2022-11-27T10:49:40.304Z,2.41
2022-11-27T10:50:42.757Z,2.41
2022-11-27T10:51:44.515Z,2.41
2022-11-27T10:53:06.240Z,2.44
2022-11-27T10:54:23.145Z,2.46
2022-11-27T10:55:44.488Z,2.48
2022-11-27T10:57:22.604Z,2.48
2022-11-27T10:58:46.549Z,2.48
2022-11-27T11:00:19.850Z,2.48
2022-11-27T11:01:24.594Z,2.47
2022-11-27T11:02:32.709Z,2.49
2022-11-27T11:03:35.515Z,2.52
2022-11-27T11:04:38.647Z,2.54
2022-11-27T11:06:04.787Z,2.56
2022-11-27T11:07:02.727Z,2.57
2022-11-27T11:08:15.806Z,2.58
2022-11-27T11:09:32.877Z,2.60
2022-11-27T11:10:38.727Z,2.62
2022-11-27T11:11:41.043Z,2.65
2022-11-27T11:12:42.850Z,2.67
2022-11-27T11:13:46.999Z,2.70
2022-11-27T11:14:57.633Z,2.72
2022-11-27T11:16:18.445Z,2.77
2022-11-27T11:17:26.913Z,2.84
2022-11-27T11:18:35.605Z,2.89
2022-11-27T11:19:39.016Z,2.95
2022-11-27T11:20:47.239Z,2.99
2022-11-27T11:21:49.085Z,3.03
2022-11-27T11:22:51.767Z,3.06
2022-11-27T11:24:00.357Z,3.10
2022-11-27T11:25:02.432Z,3.13
2022-11-27T11:26:15.605Z,3.15
2022-11-27T11:27:30.594Z,3.18
2022-11-27T11:28:40.953Z,3.21
2022-11-27T11:30:17.041Z,3.23
2022-11-27T11:31:23.556Z,3.27
2022-11-27T11:32:28.031Z,3.32
2022-11-27T11:33:30.686Z,3.36
2022-11-27T11:34:33.886Z,3.42
2022-11-27T11:35:37.050Z,3.46
2022-11-27T11:36:38.999Z,3.51
2022-11-27T11:37:46.191Z,3.55
2022-11-27T11:38:49.571Z,3.60
2022-11-27T11:40:20.311Z,3.65
2022-11-27T11:41:23.825Z,3.67
2022-11-27T11:42:29.654Z,3.69
2022-11-27T11:43:37.448Z,3.69
2022-11-27T11:44:40.668Z,3.73
2022-11-27T11:45:48.904Z,3.76
2022-11-27T11:46:53.394Z,3.78
2022-11-27T11:47:58.400Z,3.82
2022-11-27T11:49:01.934Z,3.85
2022-11-27T11:50:03.970Z,3.89
2022-11-27T11:51:27.851Z,3.95
2022-11-27T11:52:59.389Z,4.02
2022-11-27T11:54:18.448Z,4.04
2022-11-27T11:55:31.040Z,4.05
2022-11-27T11:56:44.844Z,4.04
2022-11-27T11:58:03.864Z,4.04
2022-11-27T11:59:34.034Z,4.05
2022-11-27T12:01:04.803Z,4.06
2022-11-27T12:02:23.742Z,4.04
2022-11-27T12:04:02.704Z,4.01
2022-11-27T12:05:43.236Z,4.01
2022-11-27T12:07:01.534Z,4.02
2022-11-27T12:08:30.620Z,4.01
2022-11-27T12:09:48.870Z,4.02
2022-11-27T12:11:15.339Z,4.00
2022-11-27T12:12:35.553Z,3.99
2022-11-27T12:14:03.874Z,3.95
2022-11-27T12:15:11.462Z,3.90
2022-11-27T12:16:39.930Z,3.89
2022-11-27T12:18:06.560Z,3.86
2022-11-27T12:19:49.647Z,3.87
2022-11-27T12:20:54.133Z,3.90
2022-11-27T12:22:20.385Z,3.91
2022-11-27T12:23:40.607Z,3.94
2022-11-27T12:24:54.319Z,4.00
2022-11-27T12:26:11.617Z,4.04
2022-11-27T12:27:49.990Z,4.07
2022-11-27T12:29:46.039Z,4.07
2022-11-27T12:31:05.681Z,4.07
2022-11-27T12:32:36.989Z,4.06
2022-11-27T12:33:50.444Z,4.02
2022-11-27T12:35:10.810Z,4.00
2022-11-27T12:36:50.371Z,4.01
2022-11-27T12:38:10.206Z,4.04
2022-11-27T12:39:30.626Z,4.08
2022-11-27T12:40:50.114Z,4.12
2022-11-27T12:42:21.964Z,4.13
2022-11-27T12:43:27.516Z,4.11
2022-11-27T12:44:47.430Z,4.10
2022-11-27T12:46:12.663Z,4.10
2022-11-27T12:47:29.326Z,4.08
2022-11-27T12:48:39.175Z,4.06
2022-11-27T12:49:46.237Z,4.03
2022-11-27T12:50:56.653Z,4.02
2022-11-27T12:52:21.313Z,3.99
2022-11-27T12:53:41.741Z,3.94
2022-11-27T12:54:56.214Z,3.90
2022-11-27T12:56:10.658Z,3.85
2022-11-27T12:57:20.680Z,3.81
2022-11-27T12:58:31.252Z,3.77
2022-11-27T12:59:46.353Z,3.75
2022-11-27T13:00:50.380Z,3.75
2022-11-27T13:02:28.924Z,3.75
2022-11-27T13:03:42.222Z,3.77
2022-11-27T13:04:51.788Z,3.78
2022-11-27T13:06:06.334Z,3.79
2022-11-27T13:07:24.670Z,3.81
2022-11-27T13:08:36.749Z,3.82
2022-11-27T13:10:09.448Z,3.81
2022-11-27T13:11:15.282Z,3.81
2022-11-27T13:12:30.718Z,3.80
2022-11-27T13:13:39.648Z,3.78
2022-11-27T13:14:46.445Z,3.81
2022-11-27T13:16:00.997Z,3.83
2022-11-27T13:17:11.667Z,3.85
2022-11-27T13:18:50.574Z,3.88
2022-11-27T13:19:53.383Z,3.92
2022-11-27T13:21:01.602Z,3.92
2022-11-27T13:22:09.211Z,3.91
2022-11-27T13:23:11.875Z,3.91
2022-11-27T13:24:14.853Z,3.89
2022-11-27T13:25:17.339Z,3.86
2022-11-27T13:26:31.689Z,3.84
2022-11-27T13:27:37.611Z,3.83
2022-11-27T13:28:50.183Z,3.81
2022-11-27T13:29:58.249Z,3.77
2022-11-27T13:31:02.082Z,3.73
2022-11-27T13:32:07.863Z,3.69
2022-11-27T13:33:34.143Z,3.66
2022-11-27T13:34:46.900Z,3.63
2022-11-27T13:35:49.908Z,3.58
2022-11-27T13:36:59.177Z,3.55
2022-11-27T13:38:24.274Z,3.51
2022-11-27T13:39:31.778Z,3.45
2022-11-27T13:40:42.024Z,3.42
2022-11-27T13:41:43.929Z,3.38
2022-11-27T13:42:51.002Z,3.36
2022-11-27T13:43:53.014Z,3.32
2022-11-27T13:45:03.184Z,3.29
2022-11-27T13:46:11.959Z,3.27
2022-11-27T13:47:18.899Z,3.25
2022-11-27T13:48:32.893Z,3.25
2022-11-27T13:49:38.026Z,3.22
2022-11-27T13:50:45.842Z,3.19
2022-11-27T13:51:47.785Z,3.16
2022-11-27T13:53:07.366Z,3.15
2022-11-27T13:54:25.922Z,3.13
2022-11-27T13:55:37.886Z,3.10
2022-11-27T13:56:40.598Z,3.09
2022-11-27T13:57:52.844Z,3.08
2022-11-27T13:58:54.703Z,3.08
2022-11-27T14:00:13.797Z,3.08
2022-11-27T14:01:22.475Z,3.07
2022-11-27T14:02:25.704Z,3.07
2022-11-27T14:03:30.409Z,3.06
2022-11-27T14:04:34.041Z,3.06
2022-11-27T14:05:44.355Z,3.05
2022-11-27T14:06:56.013Z,3.05
2022-11-27T14:07:59.986Z,3.04
2022-11-27T14:09:05.562Z,3.05
2022-11-27T14:10:15.820Z,3.06
2022-11-27T14:11:34.567Z,3.06
2022-11-27T14:12:36.964Z,3.06
2022-11-27T14:13:52.213Z,3.06
2022-11-27T14:15:20.143Z,3.04
2022-11-27T14:16:35.626Z,3.00
2022-11-27T14:17:49.956Z,2.96
2022-11-27T14:18:59.699Z,2.96
2022-11-27T14:20:20.601Z,2.96
2022-11-27T14:21:44.095Z,2.94
2022-11-27T14:23:11.904Z,2.91
2022-11-27T14:24:25.378Z,2.89
2022-11-27T14:25:36.566Z,2.87
2022-11-27T14:26:41.721Z,2.86
2022-11-27T14:27:43.613Z,2.86
2022-11-27T14:28:50.712Z,2.87
2022-11-27T14:29:52.896Z,2.87
2022-11-27T14:30:58.004Z,2.83
2022-11-27T14:32:02.478Z,2.78
2022-11-27T14:33:04.887Z,2.72
2022-11-27T14:34:15.560Z,2.67
2022-11-27T14:35:28.774Z,2.61
2022-11-27T14:36:34.749Z,2.57
2022-11-27T14:37:36.519Z,2.53
2022-11-27T14:38:38.288Z,2.49
2022-11-27T14:39:40.325Z,2.47
2022-11-27T14:40:43.267Z,2.45
2022-11-27T14:41:55.505Z,2.46
2022-11-27T14:43:09.609Z,2.49
2022-11-27T14:44:15.263Z,2.51
2022-11-27T14:45:21.603Z,2.53
2022-11-27T14:46:23.639Z,2.55
2022-11-27T14:47:25.638Z,2.55
2022-11-27T14:48:35.581Z,2.56
2022-11-27T14:49:37.664Z,2.55
2022-11-27T14:50:39.672Z,2.56
2022-11-27T14:51:43.584Z,2.57
2022-11-27T14:52:53.259Z,2.57
2022-11-27T14:54:02.112Z,2.56
2022-11-27T14:55:05.342Z,2.57
2022-11-27T14:56:07.640Z,2.56
2022-11-27T14:57:20.787Z,2.55
2022-11-27T14:58:26.969Z,2.56